Time,TemperatureF,DewpointF,PressureIn,WindDirection,WindDirectionDegrees,WindSpeedMPH,WindSpeedGustMPH,Humidity,HourlyPrecipIn,Conditions,Clouds,dailyrainin,SoftwareType,DateUTC
2013-04-25 00:05:00,64.5,57.0,30.02,North,9,0.0,2.0,76,0.00,,,0.00,weatherlink.com 1.10,2013-04-25 04:05:00,
2013-04-25 00:20:00,64.0,57.0,30.02,SE,126,0.0,3.0,78,0.00,,,0.00,weatherlink.com 1.10,2013-04-25 04:20:00,
2013-04-25 00:35:00,63.7,57.0,30.03,ESE,108,0.0,3.0,78,0.00,,,0.00,weatherlink.com 1.10,2013-04-25 04:35:00,
2013-04-25 00:50:00,63.4,57.0,30.03,ESE,108,0.0,2.0,79,0.00,,,0.00,weatherlink.com 1.10,2013-04-25 04:50:00,
2013-04-25 01:05:00,63.1,57.0,30.03,ESE,108,0.0,0.0,80,0.00,,,0.00,weatherlink.com 1.10,2013-04-25 05:05:00,
2013-04-25 01:20:00,62.3,57.0,30.03,ESE,108,0.0,0.0,82,0.00,,,0.00,weatherlink.com 1.10,2013-04-25 05:20:00,
2013-04-25 01:35:00,62.1,57.0,30.04,ESE,108,0.0,2.0,83,0.00,,,0.00,weatherlink.com 1.10,2013-04-25 05:35:00,
2013-04-25 01:50:00,62.1,57.0,30.03,East,94,0.0,2.0,82,0.00,,,0.00,weatherlink.com 1.10,2013-04-25 05:50:00,
2013-04-25 02:05:00,62.3,57.0,30.03,East,100,0.0,1.0,82,0.00,,,0.00,weatherlink.com 1.10,2013-04-25 06:05:00,
2013-04-25 02:20:00,62.1,57.0,30.04,WSW,246,1.0,3.0,83,0.00,,,0.00,weatherlink.com 1.10,2013-04-25 06:20:00,
2013-04-25 02:35:00,62.1,57.0,30.03,WNW,294,0.0,3.0,84,0.00,,,0.00,weatherlink.com 1.10,2013-04-25 06:35:00,
2013-04-25 02:50:00,61.6,57.0,30.04,WNW,294,0.0,0.0,85,0.00,,,0.00,weatherlink.com 1.10,2013-04-25 06:50:00,
2013-04-25 03:05:00,61.3,57.0,30.03,WNW,294,0.0,0.0,86,0.00,,,0.00,weatherlink.com 1.10,2013-04-25 07:05:00,
2013-04-25 03:20:00,61.3,57.0,30.04,WNW,292,0.0,0.0,87,0.00,,,0.00,weatherlink.com 1.10,2013-04-25 07:20:00,
2013-04-25 03:35:00,61.2,57.0,30.04,WNW,292,0.0,0.0,87,0.00,,,0.00,weatherlink.com 1.10,2013-04-25 07:35:00,
2013-04-25 03:50:00,61.2,57.0,30.04,WNW,292,0.0,0.0,87,0.00,,,0.00,weatherlink.com 1.10,2013-04-25 07:50:00,
2013-04-25 04:05:00,61.0,58.0,30.04,WNW,292,0.0,0.0,88,0.00,,,0.00,weatherlink.com 1.10,2013-04-25 08:05:00,
2013-04-25 04:20:00,60.7,57.0,30.05,WNW,292,0.0,0.0,88,0.00,,,0.00,weatherlink.com 1.10,2013-04-25 08:20:00,
2013-04-25 04:35:00,60.5,57.0,30.05,WNW,292,0.0,0.0,88,0.00,,,0.00,weatherlink.com 1.10,2013-04-25 08:35:00,
2013-04-25 04:51:00,60.2,55.0,30.06,NNW,340,0.0,1.0,84,0.00,,,0.00,weatherlink.com 1.10,2013-04-25 08:51:00,
2013-04-25 05:06:00,60.2,53.0,30.07,ESE,105,0.0,4.0,76,0.00,,,0.00,weatherlink.com 1.10,2013-04-25 09:06:00,
2013-04-25 05:21:00,60.2,50.0,30.08,NNW,334,0.0,3.0,69,0.00,,,0.00,weatherlink.com 1.10,2013-04-25 09:21:00,
2013-04-25 05:36:00,60.1,50.0,30.08,ENE,63,2.0,5.0,69,0.00,,,0.00,weatherlink.com 1.10,2013-04-25 09:36:00,
2013-04-25 05:51:00,59.8,49.0,30.09,ENE,61,0.0,4.0,67,0.00,,,0.00,weatherlink.com 1.10,2013-04-25 09:51:00,
2013-04-25 06:06:00,58.7,46.0,30.10,WNW,300,1.0,8.0,63,0.00,,,0.00,weatherlink.com 1.10,2013-04-25 10:06:00,
2013-04-25 06:21:00,58.1,46.0,30.11,WSW,254,0.0,4.0,64,0.00,,,0.00,weatherlink.com 1.10,2013-04-25 10:21:00,
2013-04-25 06:36:00,57.8,46.0,30.12,ENE,73,0.0,4.0,65,0.00,,,0.00,weatherlink.com 1.10,2013-04-25 10:36:00,
2013-04-25 06:51:00,56.6,45.0,30.13,ESE,103,1.0,6.0,65,0.00,,,0.00,weatherlink.com 1.10,2013-04-25 10:51:00,
2013-04-25 07:06:00,55.9,44.0,30.15,NNE,17,0.0,4.0,65,0.00,,,0.00,weatherlink.com 1.10,2013-04-25 11:06:00,
2013-04-25 07:21:00,55.1,43.0,30.16,NE,53,0.0,4.0,64,0.00,,,0.00,weatherlink.com 1.10,2013-04-25 11:21:00,
2013-04-25 07:36:00,54.5,42.0,30.17,North,9,1.0,10.0,63,0.00,,,0.00,weatherlink.com 1.10,2013-04-25 11:36:00,
2013-04-25 07:51:00,53.8,40.0,30.18,ENE,66,2.0,9.0,61,0.00,,,0.00,weatherlink.com 1.10,2013-04-25 11:51:00,
2013-04-25 08:06:00,53.3,40.0,30.18,East,92,5.0,6.0,60,0.00,,,0.00,weatherlink.com 1.10,2013-04-25 12:06:00,
2013-04-25 08:21:00,53.2,40.0,30.19,ENE,70,1.0,6.0,62,0.00,,,0.00,weatherlink.com 1.10,2013-04-25 12:21:00,
2013-04-25 08:36:00,52.6,39.0,30.19,NE,42,1.0,7.0,60,0.00,,,0.00,weatherlink.com 1.10,2013-04-25 12:36:00,
2013-04-25 08:51:00,52.8,39.0,30.20,ENE,57,2.0,3.0,59,0.00,,,0.00,weatherlink.com 1.10,2013-04-25 12:51:00,
2013-04-25 09:06:00,52.5,38.0,30.21,North,350,2.0,6.0,58,0.00,,,0.00,weatherlink.com 1.10,2013-04-25 13:06:00,
2013-04-25 09:21:00,53.2,36.0,30.22,NNE,28,3.0,5.0,53,0.00,,,0.00,weatherlink.com 1.10,2013-04-25 13:21:00,
2013-04-25 09:36:00,53.5,36.0,30.21,NW,304,5.0,6.0,51,0.00,,,0.00,weatherlink.com 1.10,2013-04-25 13:36:00,
2013-04-25 09:51:00,53.9,36.0,30.21,ENE,59,0.0,4.0,51,0.00,,,0.00,weatherlink.com 1.10,2013-04-25 13:51:00,
2013-04-25 10:06:00,53.9,35.0,30.21,ESE,109,2.0,4.0,49,0.00,,,0.00,weatherlink.com 1.10,2013-04-25 14:06:00,
2013-04-25 10:21:00,54.7,35.0,30.22,ENE,74,1.0,7.0,47,0.00,,,0.00,weatherlink.com 1.10,2013-04-25 14:21:00,
2013-04-25 10:36:00,55.4,35.0,30.22,SE,130,1.0,4.0,47,0.00,,,0.00,weatherlink.com 1.10,2013-04-25 14:36:00,
2013-04-25 10:51:00,56.5,36.0,30.21,ENE,75,1.0,4.0,46,0.00,,,0.00,weatherlink.com 1.10,2013-04-25 14:51:00,
2013-04-25 11:06:00,57.5,38.0,30.21,NE,55,1.0,4.0,48,0.00,,,0.00,weatherlink.com 1.10,2013-04-25 15:06:00,
2013-04-25 11:21:00,58.0,37.0,30.21,NNE,28,0.0,4.0,45,0.00,,,0.00,weatherlink.com 1.10,2013-04-25 15:21:00,
2013-04-25 11:36:00,58.7,37.0,30.21,NW,319,0.0,4.0,44,0.00,,,0.00,weatherlink.com 1.10,2013-04-25 15:36:00,
2013-04-25 11:51:00,59.5,37.0,30.21,SE,135,2.0,4.0,44,0.00,,,0.00,weatherlink.com 1.10,2013-04-25 15:51:00,
2013-04-25 12:06:00,60.1,37.0,30.22,ENE,74,3.0,5.0,43,0.00,,,0.00,weatherlink.com 1.10,2013-04-25 16:06:00,
2013-04-25 12:21:00,61.5,38.0,30.21,WNW,301,3.0,5.0,42,0.00,,,0.00,weatherlink.com 1.10,2013-04-25 16:21:00,
2013-04-25 12:36:00,62.0,38.0,30.21,WSW,248,0.0,5.0,42,0.00,,,0.00,weatherlink.com 1.10,2013-04-25 16:36:00,
2013-04-25 12:51:00,63.2,40.0,30.22,SSW,210,1.0,4.0,42,0.00,,,0.00,weatherlink.com 1.10,2013-04-25 16:51:00,
2013-04-25 13:06:00,64.2,40.0,30.21,ENE,59,0.0,6.0,41,0.00,,,0.00,weatherlink.com 1.10,2013-04-25 17:06:00,
2013-04-25 13:21:00,66.0,40.0,30.21,WNW,284,0.0,4.0,39,0.00,,,0.00,weatherlink.com 1.10,2013-04-25 17:21:00,
2013-04-25 13:36:00,67.3,40.0,30.21,WNW,286,0.0,3.0,37,0.00,,,0.00,weatherlink.com 1.10,2013-04-25 17:36:00,
2013-04-25 13:51:00,66.6,39.0,30.21,WNW,292,0.0,5.0,37,0.00,,,0.00,weatherlink.com 1.10,2013-04-25 17:51:00,
2013-04-25 14:06:00,68.1,41.0,30.21,WNW,297,0.0,2.0,37,0.00,,,0.00,weatherlink.com 1.10,2013-04-25 18:06:00,
2013-04-25 14:21:00,67.9,38.0,30.21,ENE,67,1.0,5.0,34,0.00,,,0.00,weatherlink.com 1.10,2013-04-25 18:21:00,
2013-04-25 14:37:00,69.9,38.0,30.20,NW,322,0.0,4.0,31,0.00,,,0.00,weatherlink.com 1.10,2013-04-25 18:37:00,
2013-04-25 14:52:00,69.9,39.0,30.20,NNW,332,0.0,4.0,32,0.00,,,0.00,weatherlink.com 1.10,2013-04-25 18:52:00,
2013-04-25 15:07:00,70.6,39.0,30.20,East,90,0.0,5.0,32,0.00,,,0.00,weatherlink.com 1.10,2013-04-25 19:07:00,
2013-04-25 15:22:00,70.8,35.0,30.19,North,9,0.0,3.0,27,0.00,,,0.00,weatherlink.com 1.10,2013-04-25 19:22:00,
2013-04-25 15:37:00,70.8,36.0,30.19,South,175,1.0,4.0,28,0.00,,,0.00,weatherlink.com 1.10,2013-04-25 19:37:00,
2013-04-25 15:52:00,71.5,37.0,30.18,West,263,0.0,4.0,28,0.00,,,0.00,weatherlink.com 1.10,2013-04-25 19:52:00,
2013-04-25 16:07:00,70.9,33.0,30.18,NNW,338,0.0,2.0,25,0.00,,,0.00,weatherlink.com 1.10,2013-04-25 20:07:00,
2013-04-25 16:22:00,71.3,34.0,30.18,SSW,205,0.0,4.0,25,0.00,,,0.00,weatherlink.com 1.10,2013-04-25 20:22:00,
2013-04-25 16:37:00,70.3,32.0,30.17,WNW,290,1.0,2.0,24,0.00,,,0.00,weatherlink.com 1.10,2013-04-25 20:37:00,
2013-04-25 16:52:00,70.6,30.0,30.16,NNE,19,2.0,4.0,22,0.00,,,0.00,weatherlink.com 1.10,2013-04-25 20:52:00,
2013-04-25 17:07:00,70.6,31.0,30.16,North,5,0.0,3.0,23,0.00,,,0.00,weatherlink.com 1.10,2013-04-25 21:07:00,
2013-04-25 17:22:00,70.9,33.0,30.16,West,279,0.0,2.0,25,0.00,,,0.00,weatherlink.com 1.10,2013-04-25 21:22:00,
2013-04-25 17:37:00,70.9,30.0,30.16,SSW,211,0.0,2.0,22,0.00,,,0.00,weatherlink.com 1.10,2013-04-25 21:37:00,
2013-04-25 17:52:00,70.4,30.0,30.16,NNE,30,0.0,3.0,22,0.00,,,0.00,weatherlink.com 1.10,2013-04-25 21:52:00,
2013-04-25 18:07:00,70.8,28.0,30.16,NNE,28,0.0,2.0,20,0.00,,,0.00,weatherlink.com 1.10,2013-04-25 22:07:00,
2013-04-25 18:22:00,71.3,30.0,30.16,NE,42,1.0,4.0,22,0.00,,,0.00,weatherlink.com 1.10,2013-04-25 22:22:00,
2013-04-25 18:37:00,70.4,31.0,30.16,NE,42,0.0,1.0,23,0.00,,,0.00,weatherlink.com 1.10,2013-04-25 22:37:00,
2013-04-25 18:52:00,69.1,31.0,30.16,SW,221,0.0,0.0,24,0.00,,,0.00,weatherlink.com 1.10,2013-04-25 22:52:00,
2013-04-25 19:07:00,68.6,32.0,30.16,SW,221,0.0,0.0,26,0.00,,,0.00,weatherlink.com 1.10,2013-04-25 23:07:00,
2013-04-25 19:22:00,67.6,32.0,30.17,SW,221,0.0,0.0,27,0.00,,,0.00,weatherlink.com 1.10,2013-04-25 23:22:00,
2013-04-25 19:37:00,66.3,38.0,30.18,SW,221,0.0,0.0,35,0.00,,,0.00,weatherlink.com 1.10,2013-04-25 23:37:00,
2013-04-25 19:52:00,64.7,39.0,30.18,SW,221,0.0,0.0,39,0.00,,,0.00,weatherlink.com 1.10,2013-04-25 23:52:00,
2013-04-25 20:07:00,63.1,41.0,30.18,SW,221,0.0,0.0,44,0.00,,,0.00,weatherlink.com 1.10,2013-04-26 00:07:00,
2013-04-25 20:22:00,61.0,40.0,30.19,SW,221,0.0,0.0,47,0.00,,,0.00,weatherlink.com 1.10,2013-04-26 00:22:00,
2013-04-25 20:37:00,59.5,41.0,30.19,SW,221,0.0,0.0,51,0.00,,,0.00,weatherlink.com 1.10,2013-04-26 00:37:00,
2013-04-25 20:52:00,57.8,41.0,30.20,SW,221,0.0,0.0,54,0.00,,,0.00,weatherlink.com 1.10,2013-04-26 00:52:00,
2013-04-25 21:07:00,56.6,41.0,30.20,SW,221,0.0,0.0,57,0.00,,,0.00,weatherlink.com 1.10,2013-04-26 01:07:00,
2013-04-25 21:22:00,55.4,42.0,30.21,SW,221,0.0,0.0,61,0.00,,,0.00,weatherlink.com 1.10,2013-04-26 01:22:00,
2013-04-25 21:37:00,54.4,42.0,30.22,SW,221,0.0,0.0,64,0.00,,,0.00,weatherlink.com 1.10,2013-04-26 01:37:00,
2013-04-25 21:52:00,53.5,42.0,30.23,SW,221,0.0,0.0,66,0.00,,,0.00,weatherlink.com 1.10,2013-04-26 01:52:00,
2013-04-25 22:07:00,52.8,43.0,30.23,SW,221,0.0,0.0,69,0.00,,,0.00,weatherlink.com 1.10,2013-04-26 02:07:00,
2013-04-25 22:22:00,52.2,43.0,30.23,SW,221,0.0,0.0,71,0.00,,,0.00,weatherlink.com 1.10,2013-04-26 02:22:00,
2013-04-25 22:37:00,51.6,42.0,30.24,SW,221,0.0,0.0,71,0.00,,,0.00,weatherlink.com 1.10,2013-04-26 02:37:00,
2013-04-25 22:52:00,51.1,43.0,30.24,SW,221,0.0,0.0,74,0.00,,,0.00,weatherlink.com 1.10,2013-04-26 02:52:00,
2013-04-25 23:07:00,50.7,43.0,30.24,SW,221,0.0,0.0,75,0.00,,,0.00,weatherlink.com 1.10,2013-04-26 03:07:00,
2013-04-25 23:22:00,50.1,42.0,30.24,SW,221,0.0,0.0,75,0.00,,,0.00,weatherlink.com 1.10,2013-04-26 03:22:00,
2013-04-25 23:37:00,49.6,42.0,30.24,SW,221,0.0,0.0,76,0.00,,,0.00,weatherlink.com 1.10,2013-04-26 03:37:00,
2013-04-25 23:52:00,49.1,43.0,30.24,SW,221,0.0,0.0,78,0.00,,,0.00,weatherlink.com 1.10,2013-04-26 03:52:00,